createdAt,value
2022-08-07T00:02:36.830Z,15.31
2022-08-07T00:05:09.476Z,15.47
2022-08-07T00:07:40.937Z,15.31
2022-08-07T00:10:27.330Z,15.24
2022-08-07T00:13:17.619Z,15.24
2022-08-07T00:15:56.077Z,15.18
2022-08-07T00:18:29.993Z,15.16
2022-08-07T00:21:03.515Z,15.10
2022-08-07T00:23:41.633Z,15.01
2022-08-07T00:26:31.260Z,15.19
2022-08-07T00:29:07.161Z,15.10
2022-08-07T00:31:42.073Z,15.07
2022-08-07T00:34:12.505Z,14.94
2022-08-07T00:36:46.699Z,14.92
2022-08-07T00:39:17.531Z,14.89
2022-08-07T00:42:01.362Z,14.88
2022-08-07T00:44:38.205Z,14.89
2022-08-07T00:47:25.453Z,14.76
2022-08-07T00:50:20.123Z,14.67
2022-08-07T00:52:53.140Z,14.66
2022-08-07T00:55:25.378Z,14.44
2022-08-07T00:58:13.598Z,14.38
2022-08-07T01:00:54.048Z,14.29
2022-08-07T01:03:54.661Z,14.27
2022-08-07T01:06:15.747Z,14.27
2022-08-07T01:08:53.472Z,14.25
2022-08-07T01:12:23.438Z,14.18
2022-08-07T01:14:16.713Z,14.08
2022-08-07T01:16:50.607Z,13.90
2022-08-07T01:19:25.302Z,13.81
2022-08-07T01:21:59.806Z,13.79
2022-08-07T01:24:35.993Z,13.74
2022-08-07T01:27:19.751Z,13.69
2022-08-07T01:29:50.799Z,13.64
2022-08-07T01:32:23.096Z,13.55
2022-08-07T01:34:56.358Z,13.41
2022-08-07T01:37:30.826Z,13.45
2022-08-07T01:40:05.234Z,13.48
2022-08-07T01:42:57.007Z,13.51
2022-08-07T01:45:36.422Z,13.43
2022-08-07T01:48:20.999Z,13.49
2022-08-07T01:50:59.932Z,13.61
2022-08-07T01:54:08.808Z,13.56
2022-08-07T01:56:51.154Z,13.50
2022-08-07T01:59:31.107Z,13.61
2022-08-07T02:02:10.464Z,13.59
2022-08-07T02:04:55.755Z,13.46
2022-08-07T02:07:36.207Z,13.50
2022-08-07T02:10:29.521Z,13.48
2022-08-07T02:13:04.466Z,13.63
2022-08-07T02:15:47.105Z,13.56
2022-08-07T02:18:19.206Z,13.59
2022-08-07T02:20:57.285Z,13.56
2022-08-07T02:23:31.153Z,13.59
2022-08-07T02:26:33.149Z,13.83
2022-08-07T02:29:02.882Z,13.82
2022-08-07T02:31:35.473Z,13.84
2022-08-07T02:34:11.596Z,13.82
2022-08-07T02:36:54.546Z,13.89
2022-08-07T02:39:42.855Z,13.86
2022-08-07T02:42:22.761Z,13.67
2022-08-07T02:44:58.468Z,13.59
2022-08-07T02:47:35.051Z,13.56
2022-08-07T02:50:19.319Z,13.55
2022-08-07T02:53:00.899Z,13.49
2022-08-07T02:56:04.416Z,13.59
2022-08-07T02:58:37.279Z,13.75
2022-08-07T03:01:18.721Z,13.66
2022-08-07T03:03:51.014Z,13.64
2022-08-07T03:06:33.249Z,13.55
2022-08-07T03:09:11.415Z,13.66
2022-08-07T03:11:52.605Z,13.69
2022-08-07T03:14:33.809Z,13.68
2022-08-07T03:17:04.526Z,13.63
2022-08-07T03:19:37.486Z,13.74
2022-08-07T03:22:18.785Z,13.73
2022-08-07T03:24:49.502Z,13.93
2022-08-07T03:27:30.609Z,13.95
2022-08-07T03:30:17.678Z,13.81
2022-08-07T03:32:58.660Z,13.79
2022-08-07T03:35:43.960Z,13.77
2022-08-07T03:38:29.632Z,13.75
2022-08-07T03:41:03.369Z,13.63
2022-08-07T03:43:36.088Z,13.63
2022-08-07T03:46:18.626Z,13.50
2022-08-07T03:49:02.617Z,13.52
2022-08-07T03:51:47.703Z,13.56
2022-08-07T03:54:36.255Z,13.48
2022-08-07T03:58:34.573Z,13.39
2022-08-07T04:00:11.851Z,13.29
2022-08-07T04:02:56.733Z,13.16
2022-08-07T04:05:39.623Z,13.19
2022-08-07T04:08:18.454Z,13.18
2022-08-07T04:10:53.801Z,13.16
2022-08-07T04:14:10.268Z,13.13
2022-08-07T04:16:37.714Z,13.19
2022-08-07T04:19:17.636Z,13.18
2022-08-07T04:21:59.579Z,13.19
2022-08-07T04:24:41.276Z,13.21
2022-08-07T04:27:20.449Z,13.31
2022-08-07T04:30:01.718Z,13.45
2022-08-07T04:32:44.977Z,13.52
2022-08-07T04:35:21.862Z,13.78
2022-08-07T04:38:05.510Z,13.74
2022-08-07T04:40:51.362Z,13.89
2022-08-07T04:44:11.723Z,13.98
2022-08-07T04:46:59.199Z,14.06
2022-08-07T04:49:39.721Z,14.19
2022-08-07T04:52:30.641Z,14.46
2022-08-07T04:58:12.484Z,15.11
2022-08-07T04:58:33.733Z,16.03
2022-08-07T05:01:20.606Z,16.85
2022-08-07T05:04:08.601Z,17.35
2022-08-07T05:06:56.317Z,18.16
2022-08-07T05:09:47.052Z,18.96
2022-08-07T05:12:32.663Z,19.67
2022-08-07T05:15:23.325Z,20.19
2022-08-07T05:18:08.581Z,20.77
2022-08-07T05:20:46.374Z,21.32
2022-08-07T05:23:29.942Z,21.71
2022-08-07T05:26:13.348Z,21.82
2022-08-07T05:28:56.394Z,22.15
2022-08-07T05:31:38.511Z,22.52
2022-08-07T05:34:15.946Z,22.96
2022-08-07T05:36:53.317Z,23.23
2022-08-07T05:40:17.166Z,23.36
2022-08-07T05:42:33.723Z,23.80
2022-08-07T05:45:26.275Z,23.95
2022-08-07T05:48:07.746Z,24.53
2022-08-07T05:50:46.096Z,24.88
2022-08-07T05:54:12.982Z,24.88
2022-08-07T05:56:13.884Z,25.31
2022-08-07T05:58:53.791Z,25.68
2022-08-07T06:01:35.697Z,25.80
2022-08-07T06:04:09.758Z,26.14
2022-08-07T06:06:46.087Z,26.26
2022-08-07T06:09:20.221Z,26.34
2022-08-07T06:12:11.315Z,26.47
2022-08-07T06:14:49.468Z,26.88
2022-08-07T06:17:22.522Z,26.35
2022-08-07T06:20:04.751Z,26.38
2022-08-07T06:22:40.384Z,27.12
2022-08-07T06:25:34.843Z,27.09
2022-08-07T06:28:07.631Z,27.20
2022-08-07T06:30:45.863Z,27.09
2022-08-07T06:33:22.553Z,26.65
2022-08-07T06:36:12.427Z,27.09
2022-08-07T06:38:59.353Z,27.33
2022-08-07T06:42:00.787Z,27.38
2022-08-07T06:44:54.850Z,26.77
2022-08-07T06:47:47.787Z,26.60
2022-08-07T06:50:20.714Z,27.10
2022-08-07T06:52:57.148Z,26.28
2022-08-07T06:55:53.574Z,26.49
2022-08-07T06:58:28.731Z,26.17
2022-08-07T07:01:09.951Z,26.05
2022-08-07T07:03:50.027Z,25.76
2022-08-07T07:06:29.308Z,25.54
2022-08-07T07:08:59.664Z,25.89
2022-08-07T07:12:09.131Z,25.74
2022-08-07T07:14:27.343Z,25.84
2022-08-07T07:17:02.488Z,25.95
2022-08-07T07:19:57.993Z,26.35
2022-08-07T07:22:36.879Z,25.72
2022-08-07T07:26:32.658Z,25.70
2022-08-07T07:28:42.369Z,26.59
2022-08-07T07:31:21.853Z,26.71
2022-08-07T07:33:58.364Z,27.02
2022-08-07T07:36:33.776Z,26.98
2022-08-07T07:39:07.084Z,27.06
2022-08-07T07:42:01.983Z,27.04
2022-08-07T07:44:34.383Z,27.60
2022-08-07T07:47:14.179Z,27.40
2022-08-07T07:50:33.021Z,27.87
2022-08-07T07:52:47.536Z,27.51
2022-08-07T07:55:21.920Z,27.37
2022-08-07T07:57:58.399Z,28.21
2022-08-07T08:00:34.258Z,28.94
2022-08-07T08:03:16.622Z,28.61
2022-08-07T08:05:55.035Z,28.28
2022-08-07T08:08:37.049Z,28.23
2022-08-07T08:11:16.064Z,29.01
2022-08-07T08:13:52.924Z,28.94
2022-08-07T08:16:32.747Z,29.08
2022-08-07T08:20:15.647Z,28.90
2022-08-07T08:22:15.936Z,28.94
2022-08-07T08:25:24.570Z,29.28
2022-08-07T08:28:01.893Z,29.73
2022-08-07T08:30:42.857Z,30.01
2022-08-07T08:33:28.889Z,30.19
2022-08-07T08:36:05.322Z,30.83
2022-08-07T08:38:43.101Z,30.17
2022-08-07T08:41:31.484Z,30.93
2022-08-07T08:44:29.359Z,30.67
2022-08-07T08:47:11.670Z,30.25
2022-08-07T08:50:04.984Z,30.18
2022-08-07T08:52:51.679Z,30.66
2022-08-07T08:55:55.581Z,30.37
2022-08-07T08:58:38.649Z,31.11
2022-08-07T09:01:18.657Z,31.75
2022-08-07T09:04:09.005Z,30.93
2022-08-07T09:06:54.942Z,31.48
2022-08-07T09:09:56.548Z,31.34
2022-08-07T09:12:53.250Z,31.36
2022-08-07T09:16:23.130Z,29.62
2022-08-07T09:19:53.707Z,29.15
2022-08-07T09:24:33.303Z,29.12
2022-08-07T09:25:28.562Z,29.59
2022-08-07T09:30:01.464Z,30.36
2022-08-07T09:31:10.813Z,30.02
2022-08-07T09:34:10.218Z,29.80
2022-08-07T09:36:50.781Z,30.50
2022-08-07T09:39:55.365Z,31.28
2022-08-07T09:42:50.440Z,30.57
2022-08-07T09:47:25.813Z,30.18
2022-08-07T09:50:01.949Z,30.39
2022-08-07T09:52:16.586Z,29.97
2022-08-07T09:54:57.193Z,31.01
2022-08-07T09:58:03.844Z,31.44
2022-08-07T10:00:57.401Z,30.94
2022-08-07T10:04:06.115Z,31.36
2022-08-07T10:07:25.678Z,31.69
2022-08-07T10:10:28.309Z,31.62
2022-08-07T10:14:00.686Z,31.65
2022-08-07T10:17:14.220Z,31.23
2022-08-07T10:20:30.616Z,31.88
2022-08-07T10:24:06.811Z,31.69
2022-08-07T10:27:03.050Z,31.86
2022-08-07T10:30:03.923Z,31.68
2022-08-07T10:33:14.910Z,31.41
2022-08-07T10:36:17.858Z,30.72
2022-08-07T10:39:08.481Z,30.44
2022-08-07T10:41:53.804Z,31.70
2022-08-07T10:44:46.282Z,31.78
2022-08-07T10:47:53.929Z,31.76
2022-08-07T10:50:32.337Z,31.53
2022-08-07T10:53:13.895Z,31.50
2022-08-07T10:56:02.248Z,32.36
2022-08-07T10:58:59.463Z,32.71
2022-08-07T11:01:51.332Z,32.20
2022-08-07T11:04:58.618Z,31.24
2022-08-07T11:07:58.441Z,32.14
2022-08-07T11:10:43.591Z,32.10
2022-08-07T11:14:42.056Z,32.34
2022-08-07T11:16:30.612Z,32.32
2022-08-07T11:19:12.615Z,32.53
2022-08-07T11:21:52.949Z,33.05
2022-08-07T11:24:33.150Z,32.19
2022-08-07T11:27:16.656Z,31.66
2022-08-07T11:30:18.077Z,31.51
2022-08-07T11:33:07.950Z,32.35
2022-08-07T11:36:01.359Z,33.29
2022-08-07T11:38:50.574Z,32.65
2022-08-07T11:41:29.641Z,32.86
2022-08-07T11:44:35.550Z,33.68
2022-08-07T11:47:20.742Z,34.25
2022-08-07T11:50:33.548Z,33.53
2022-08-07T11:53:23.748Z,33.19
2022-08-07T11:56:26.988Z,33.30
2022-08-07T12:00:10.444Z,34.25
2022-08-07T12:02:49.832Z,34.13
2022-08-07T12:05:47.480Z,34.96
2022-08-07T12:08:34.388Z,33.84
2022-08-07T12:11:21.228Z,33.53
2022-08-07T12:14:00.817Z,34.43
2022-08-07T12:16:39.401Z,34.82
2022-08-07T12:19:22.568Z,35.26
2022-08-07T12:22:38.759Z,35.66
2022-08-07T12:26:03.083Z,35.19
2022-08-07T12:28:30.806Z,35.17
2022-08-07T12:31:09.852Z,34.85
2022-08-07T12:34:01.424Z,34.82
2022-08-07T12:36:37.530Z,34.19
2022-08-07T12:39:43.961Z,34.02
2022-08-07T12:42:07.035Z,34.11
2022-08-07T12:44:44.903Z,34.39
2022-08-07T12:47:31.589Z,34.55
2022-08-07T12:50:33.713Z,34.10
2022-08-07T12:53:22.060Z,33.54
2022-08-07T12:56:04.258Z,33.46
2022-08-07T12:58:46.868Z,34.06
2022-08-07T13:01:45.268Z,33.65
2022-08-07T13:04:49.203Z,34.29
2022-08-07T13:08:18.921Z,34.77
2022-08-07T13:11:08.814Z,32.74
2022-08-07T13:13:58.736Z,34.42
2022-08-07T13:16:39.761Z,35.04
2022-08-07T13:19:35.145Z,35.29
2022-08-07T13:22:27.912Z,35.17
2022-08-07T13:25:09.169Z,35.15
2022-08-07T13:28:12.786Z,35.50
2022-08-07T13:30:40.811Z,36.47
2022-08-07T13:34:31.722Z,36.49
2022-08-07T13:36:28.693Z,34.76
2022-08-07T13:39:12.749Z,34.76
2022-08-07T13:41:54.666Z,34.47
2022-08-07T13:44:34.431Z,34.63
2022-08-07T13:47:15.044Z,34.56
2022-08-07T13:50:35.518Z,34.66
2022-08-07T13:52:47.022Z,35.71
2022-08-07T13:55:26.450Z,35.92
2022-08-07T13:58:27.725Z,35.56
2022-08-07T14:01:10.711Z,34.97
2022-08-07T14:04:07.053Z,35.16
2022-08-07T14:06:40.860Z,33.25
2022-08-07T14:10:01.533Z,33.10
2022-08-07T14:12:27.609Z,34.73
2022-08-07T14:15:10.499Z,35.63
2022-08-07T14:18:16.143Z,35.75
2022-08-07T14:20:48.824Z,35.26
2022-08-07T14:23:59.053Z,35.43
2022-08-07T14:30:05.353Z,36.45
2022-08-07T14:32:16.183Z,36.12
2022-08-07T14:34:52.485Z,35.55
2022-08-07T14:37:36.278Z,35.44
2022-08-07T14:40:26.615Z,35.74
2022-08-07T14:43:58.778Z,37.12
2022-08-07T14:45:59.125Z,35.93
2022-08-07T14:48:35.590Z,37.15
2022-08-07T14:51:15.747Z,37.98
2022-08-07T14:54:09.693Z,38.51
2022-08-07T14:56:46.211Z,36.77
2022-08-07T15:00:05.215Z,37.10
2022-08-07T15:02:33.014Z,36.66
2022-08-07T15:05:19.798Z,36.65
2022-08-07T15:08:01.435Z,37.09
2022-08-07T15:10:32.342Z,37.63
2022-08-07T15:16:11.116Z,37.08
2022-08-07T15:18:48.988Z,37.87
2022-08-07T15:21:44.731Z,37.37
2022-08-07T15:27:19.284Z,36.76
2022-08-07T15:30:10.051Z,36.59
2022-08-07T15:33:03.702Z,36.21
2022-08-07T15:36:04.932Z,36.74
2022-08-07T15:38:51.287Z,37.72
2022-08-07T15:42:44.320Z,36.99
2022-08-07T15:44:24.206Z,37.76
2022-08-07T15:47:03.376Z,38.55
2022-08-07T15:50:05.177Z,37.71
2022-08-07T15:52:37.184Z,38.60
2022-08-07T15:55:15.482Z,36.81
2022-08-07T15:58:00.157Z,37.46
2022-08-07T16:00:39.999Z,37.06
2022-08-07T16:03:22.132Z,36.63
2022-08-07T16:06:11.889Z,37.55
2022-08-07T16:08:47.331Z,38.65
2022-08-07T16:11:47.492Z,39.12
2022-08-07T16:14:23.167Z,37.75
2022-08-07T16:17:14.852Z,35.50
2022-08-07T16:20:34.010Z,36.38
2022-08-07T16:23:53.509Z,38.32
2022-08-07T16:26:59.528Z,38.79
2022-08-07T16:30:17.756Z,40.15
2022-08-07T16:34:02.895Z,40.46
2022-08-07T16:36:31.116Z,38.07
2022-08-07T16:39:40.178Z,38.14
2022-08-07T16:42:44.427Z,39.93
2022-08-07T16:46:40.936Z,41.40
2022-08-07T16:50:20.625Z,42.60
2022-08-07T16:52:52.525Z,41.47
2022-08-07T16:55:47.468Z,38.09
2022-08-07T16:58:48.009Z,38.18
2022-08-07T17:01:41.386Z,37.92
2022-08-07T17:04:29.583Z,38.34
2022-08-07T17:07:13.548Z,38.60
2022-08-07T17:10:07.091Z,38.16
2022-08-07T17:12:53.231Z,38.24
2022-08-07T17:15:44.367Z,36.35
2022-08-07T17:18:35.133Z,34.83
2022-08-07T17:21:18.789Z,36.09
2022-08-07T17:24:07.021Z,38.15
2022-08-07T17:26:51.401Z,37.11
2022-08-07T17:30:15.157Z,39.28
2022-08-07T17:32:52.482Z,39.86
2022-08-07T17:35:50.031Z,39.98
2022-08-07T17:38:33.060Z,37.35
2022-08-07T17:42:02.663Z,34.10
2022-08-07T17:44:15.550Z,36.34
2022-08-07T17:47:09.072Z,36.72
2022-08-07T17:49:58.845Z,37.00
2022-08-07T17:52:39.991Z,36.91
2022-08-07T17:55:55.739Z,36.73
2022-08-07T17:58:11.396Z,35.78
2022-08-07T18:01:20.817Z,34.75
2022-08-07T18:04:16.447Z,34.20
2022-08-07T18:07:20.841Z,33.31
2022-08-07T18:10:05.945Z,30.50
2022-08-07T18:12:54.067Z,28.95
2022-08-07T18:15:33.111Z,28.14
2022-08-07T18:18:44.715Z,27.17
2022-08-07T18:21:38.249Z,26.65
2022-08-07T18:24:09.889Z,26.34
2022-08-07T18:27:22.934Z,25.85
2022-08-07T18:30:31.440Z,25.70
2022-08-07T18:33:39.430Z,25.32
2022-08-07T18:36:42.066Z,25.12
2022-08-07T18:40:06.407Z,24.98
2022-08-07T18:42:44.494Z,24.75
2022-08-07T18:45:44.123Z,24.52
2022-08-07T18:50:30.354Z,24.25
2022-08-07T18:52:37.861Z,24.15
2022-08-07T18:54:31.234Z,23.97
2022-08-07T18:57:36.788Z,23.76
2022-08-07T19:00:34.168Z,23.67
2022-08-07T19:03:18.189Z,23.55
2022-08-07T19:06:04.761Z,23.29
2022-08-07T19:08:52.646Z,23.28
2022-08-07T19:12:05.065Z,23.21
2022-08-07T19:14:55.447Z,23.02
2022-08-07T19:17:59.385Z,22.99
2022-08-07T19:21:08.525Z,22.81
2022-08-07T19:23:57.851Z,22.70
2022-08-07T19:27:16.781Z,22.57
2022-08-07T19:30:57.162Z,22.49
2022-08-07T19:32:34.564Z,22.47
2022-08-07T19:35:22.583Z,22.31
2022-08-07T19:38:01.673Z,22.05
2022-08-07T19:40:49.388Z,21.91
2022-08-07T19:43:44.119Z,21.72
2022-08-07T19:46:32.353Z,21.67
2022-08-07T19:49:09.801Z,21.32
2022-08-07T19:51:52.343Z,21.14
2022-08-07T19:54:31.146Z,20.99
2022-08-07T19:57:59.982Z,20.97
2022-08-07T20:00:10.166Z,20.81
2022-08-07T20:02:52.248Z,20.62
2022-08-07T20:05:29.425Z,20.40
2022-08-07T20:08:06.641Z,20.26
2022-08-07T20:10:55.211Z,20.10
2022-08-07T20:13:35.783Z,20.14
2022-08-07T20:16:15.867Z,20.11
2022-08-07T20:19:04.622Z,19.97
2022-08-07T20:21:42.171Z,19.79
2022-08-07T20:24:22.529Z,19.71
2022-08-07T20:26:56.518Z,19.64
2022-08-07T20:29:49.494Z,19.49
2022-08-07T20:32:27.024Z,19.54
2022-08-07T20:35:16.302Z,19.43
2022-08-07T20:37:58.264Z,19.33
2022-08-07T20:40:35.031Z,19.33
2022-08-07T20:43:09.657Z,19.28
2022-08-07T20:46:25.958Z,19.40
2022-08-07T20:49:54.052Z,19.17
2022-08-07T20:51:40.683Z,19.20
2022-08-07T20:54:30.272Z,19.22
2022-08-07T20:57:10.205Z,19.08
2022-08-07T21:00:08.016Z,19.17
2022-08-07T21:02:54.483Z,19.03
2022-08-07T21:05:52.694Z,19.01
2022-08-07T21:08:36.953Z,19.08
2022-08-07T21:11:14.784Z,19.17
2022-08-07T21:14:16.821Z,19.14
2022-08-07T21:16:56.797Z,19.19
2022-08-07T21:19:51.616Z,19.11
2022-08-07T21:22:35.930Z,19.34
2022-08-07T21:25:17.593Z,19.40
2022-08-07T21:28:07.751Z,19.22
2022-08-07T21:30:57.993Z,19.33
2022-08-07T21:33:41.928Z,19.24
2022-08-07T21:36:31.451Z,19.26
2022-08-07T21:39:45.844Z,19.26
2022-08-07T21:46:09.351Z,19.01
2022-08-07T21:48:34.347Z,18.89
2022-08-07T21:51:32.616Z,18.73
2022-08-07T21:54:21.642Z,18.63
2022-08-07T21:57:31.258Z,18.49
2022-08-07T22:00:22.085Z,18.41
2022-08-07T22:03:06.752Z,18.26
2022-08-07T22:05:52.594Z,18.13
2022-08-07T22:08:25.903Z,17.99
2022-08-07T22:11:08.397Z,17.99
2022-08-07T22:13:50.953Z,17.85
2022-08-07T22:16:44.320Z,17.75
2022-08-07T22:19:27.081Z,17.74
2022-08-07T22:22:20.827Z,17.64
2022-08-07T22:25:08.167Z,17.60
2022-08-07T22:28:06.375Z,17.69
2022-08-07T22:30:53.356Z,17.48
2022-08-07T22:33:50.988Z,17.31
2022-08-07T22:36:39.912Z,17.17
2022-08-07T22:39:24.080Z,17.12
2022-08-07T22:42:18.973Z,17.06
2022-08-07T22:44:59.885Z,16.97
2022-08-07T22:48:31.301Z,16.92
2022-08-07T22:51:36.660Z,16.85
2022-08-07T22:54:35.752Z,16.87
2022-08-07T22:57:26.066Z,16.71
2022-08-07T23:00:07.958Z,16.78
2022-08-07T23:02:56.999Z,16.64
2022-08-07T23:06:09.633Z,16.59
2022-08-07T23:10:01.218Z,16.62
2022-08-07T23:12:11.979Z,16.54
2022-08-07T23:15:21.863Z,16.46
2022-08-07T23:18:42.378Z,16.45
2022-08-07T23:21:29.994Z,16.27
2022-08-07T23:24:45.747Z,16.26
2022-08-07T23:28:21.105Z,16.25
2022-08-07T23:31:06.598Z,16.23
2022-08-07T23:34:35.252Z,16.00
2022-08-07T23:37:29.489Z,15.97
2022-08-07T23:40:17.327Z,15.89
2022-08-07T23:43:16.673Z,15.85
2022-08-07T23:46:10.650Z,15.84
2022-08-07T23:49:18.150Z,15.69
2022-08-07T23:52:58.835Z,15.70
2022-08-07T23:55:00.982Z,15.61
2022-08-07T23:57:38.886Z,15.50
